Time;durP1;ratioP1;P1;durP2;ratioP2;P2;SDS_P1;SDS_P2;PMS_P1;PMS_P2;Temp;Humidity;BMP_temperature;BMP_pressure;BME280_temperature;BME280_humidity;BME280_pressure;Samples;Min_cycle;Max_cycle;Signal;HPM_P1;HPM_P2
2023/05/30 00:00:05;;;;;;;15.43;10.00;;;30.80;95.10;;;;;;5067214;28;20024;-41
2023/05/30 00:02:33;;;;;;;29.27;21.58;;;30.80;95.10;;;;;;5066750;28;20047;-54
2023/05/30 00:05:00;;;;;;;19.98;14.20;;;30.80;95.10;;;;;;5067420;28;20333;-44
2023/05/30 00:07:27;;;;;;;17.73;14.18;;;30.80;95.10;;;;;;5066794;28;20025;-45
2023/05/30 00:09:53;;;;;;;9.25;4.38;;;30.70;95.10;;;;;;5066623;28;20051;-46
2023/05/30 00:12:20;;;;;;;7.57;3.35;;;30.70;95.10;;;;;;5066706;28;20033;-41
2023/05/30 00:14:47;;;;;;;5.75;2.58;;;30.70;95.00;;;;;;5066827;28;20282;-46
2023/05/30 00:17:16;;;;;;;6.57;2.28;;;30.60;94.90;;;;;;5065761;28;20329;-45
2023/05/30 00:19:44;;;;;;;6.45;3.72;;;30.70;94.90;;;;;;5066614;28;20036;-42
2023/05/30 00:22:10;;;;;;;6.00;3.30;;;30.60;94.90;;;;;;5066007;28;20020;-49
2023/05/30 00:24:37;;;;;;;5.85;2.97;;;30.60;95.00;;;;;;5064899;28;20080;-48
2023/05/30 00:27:05;;;;;;;6.45;2.70;;;30.70;95.00;;;;;;5065504;28;20113;-45
2023/05/30 00:29:31;;;;;;;7.35;3.00;;;30.60;95.00;;;;;;5066161;28;20310;-42
2023/05/30 00:31:59;;;;;;;4.90;2.25;;;30.60;95.00;;;;;;5066178;28;20021;-45
2023/05/30 00:34:25;;;;;;;4.45;1.70;;;30.60;95.00;;;;;;5066503;28;20044;-47
2023/05/30 00:36:52;;;;;;;2.90;1.60;;;30.60;95.00;;;;;;5066452;28;20025;-42
2023/05/30 00:39:18;;;;;;;5.78;1.45;;;30.60;95.00;;;;;;5066531;28;20012;-43
2023/05/30 00:41:45;;;;;;;4.13;1.40;;;30.70;95.00;;;;;;5066188;28;20091;-44
2023/05/30 00:44:12;;;;;;;9.23;2.92;;;30.60;95.00;;;;;;5059997;28;20029;-48
2023/05/30 00:46:40;;;;;;;4.80;1.90;;;30.50;95.30;;;;;;5054892;28;20029;-49
2023/05/30 00:49:06;;;;;;;9.55;1.80;;;30.30;95.80;;;;;;5063810;28;20036;-42
2023/05/30 00:51:33;;;;;;;10.73;2.20;;;30.20;96.50;;;;;;5065949;28;20032;-40
2023/05/30 00:54:02;;;;;;;4.95;2.33;;;30.10;96.80;;;;;;5066145;28;20291;-42
2023/05/30 00:56:30;;;;;;;7.70;4.22;;;30.10;97.10;;;;;;5066098;28;20048;-42
2023/05/30 00:58:58;;;;;;;5.03;2.35;;;30.10;97.40;;;;;;5065722;28;20013;-40
2023/05/30 01:01:24;;;;;;;4.60;2.00;;;30.00;97.30;;;;;;5065550;28;20049;-43
2023/05/30 01:03:51;;;;;;;4.55;1.88;;;30.00;97.30;;;;;;5065634;28;20252;-40
2023/05/30 01:06:19;;;;;;;2.95;1.25;;;30.00;97.60;;;;;;5065390;28;20036;-47
2023/05/30 01:08:51;;;;;;;7.05;2.80;;;30.00;97.70;;;;;;5065735;28;20071;-44
2023/05/30 01:11:26;;;;;;;7.22;2.10;;;30.00;98.10;;;;;;5065561;28;20052;-45
2023/05/30 01:14:00;;;;;;;5.88;2.10;;;29.90;98.00;;;;;;5058430;28;20021;-42
2023/05/30 01:16:32;;;;;;;6.57;1.73;;;29.90;98.10;;;;;;5063086;28;20033;-40
2023/05/30 01:19:17;;;;;;;;;;;29.90;98.40;;;;;;5064819;28;20075;-43
2023/05/30 01:21:44;;;;;;;7.03;1.67;;;29.90;98.50;;;;;;5065456;28;19979;-39
2023/05/30 01:24:31;;;;;;;7.65;1.95;;;29.90;98.80;;;;;;5065433;28;20020;-47
2023/05/30 01:27:24;;;;;;;5.57;1.70;;;29.90;98.70;;;;;;5055178;28;20103;-41
2023/05/30 01:29:51;;;;;;;5.93;1.60;;;29.80;98.70;;;;;;5055984;28;20134;-47
2023/05/30 01:32:19;;;;;;;7.40;2.05;;;29.80;98.60;;;;;;5045217;28;20049;-39
2023/05/30 01:34:45;;;;;;;6.60;2.00;;;29.70;98.50;;;;;;5055187;28;20021;-42
2023/05/30 01:37:13;;;;;;;7.75;1.80;;;29.60;98.40;;;;;;5045172;28;20029;-48
2023/05/30 01:39:39;;;;;;;6.13;2.10;;;29.60;98.60;;;;;;5051072;28;20084;-44
2023/05/30 01:42:26;;;;;;;6.00;1.70;;;29.80;98.70;;;;;;5052529;28;20040;-40
2023/05/30 01:45:11;;;;;;;7.25;1.83;;;29.70;98.60;;;;;;5044805;28;20096;-45
2023/05/30 01:48:04;;;;;;;5.05;1.42;;;29.50;98.50;;;;;;5050682;28;20032;-41
2023/05/30 01:50:40;;;;;;;5.70;1.02;;;29.50;98.50;;;;;;5064842;28;20032;-39
2023/05/30 01:53:13;;;;;;;3.85;0.90;;;29.40;98.70;;;;;;5055688;28;20030;-42
2023/05/30 01:55:44;;;;;;;3.72;0.77;;;29.40;98.70;;;;;;5050986;28;20071;-39
2023/05/30 01:58:13;;;;;;;2.95;0.73;;;29.40;98.80;;;;;;5056811;28;20040;-44
2023/05/30 02:00:42;;;;;;;5.53;1.10;;;29.30;98.70;;;;;;5044773;28;20454;-49
2023/05/30 02:03:11;;;;;;;4.40;0.90;;;29.40;99.10;;;;;;5055049;28;20029;-47
2023/05/30 02:05:37;;;;;;;3.38;0.80;;;29.70;99.20;;;;;;5052921;28;20033;-47
2023/05/30 02:08:04;;;;;;;3.85;0.80;;;29.80;98.90;;;;;;5044689;28;20101;-45
2023/05/30 02:10:31;;;;;;;2.88;0.70;;;30.00;98.70;;;;;;5050552;28;20230;-45
2023/05/30 02:12:57;;;;;;;4.63;1.20;;;30.10;98.40;;;;;;5054446;28;20246;-48
2023/05/30 02:15:24;;;;;;;3.95;0.93;;;30.00;98.20;;;;;;5059002;28;20052;-47
2023/05/30 02:17:50;;;;;;;5.90;1.05;;;30.00;97.80;;;;;;5063680;28;20024;-50
2023/05/30 02:20:17;;;;;;;6.40;1.40;;;29.90;97.60;;;;;;5064748;28;20033;-45
2023/05/30 02:22:43;;;;;;;6.68;1.90;;;30.10;97.40;;;;;;5064297;28;20033;-51
2023/05/30 02:25:10;;;;;;;8.88;2.22;;;30.00;97.30;;;;;;5058037;28;20025;-51
2023/05/30 02:27:37;;;;;;;10.40;2.28;;;29.90;97.10;;;;;;5052218;28;20094;-51
2023/05/30 02:30:04;;;;;;;6.25;2.13;;;30.00;97.00;;;;;;5043787;28;20332;-50
2023/05/30 02:32:31;;;;;;;9.40;2.15;;;30.10;96.90;;;;;;5044058;28;20067;-51
2023/05/30 02:34:57;;;;;;;7.70;1.77;;;30.00;96.70;;;;;;5044512;28;20112;-55
2023/05/30 02:37:24;;;;;;;5.72;1.52;;;30.00;96.60;;;;;;5044138;28;20036;-50
2023/05/30 02:39:50;;;;;;;7.80;1.48;;;30.00;96.60;;;;;;5052126;28;20308;-48
2023/05/30 02:42:16;;;;;;;4.90;1.20;;;30.00;96.50;;;;;;5055050;28;20037;-48
2023/05/30 02:44:43;;;;;;;6.07;1.15;;;29.90;96.50;;;;;;5060005;28;20087;-46
2023/05/30 02:47:09;;;;;;;3.92;0.75;;;30.00;96.50;;;;;;5060205;28;20024;-49
2023/05/30 02:49:37;;;;;;;3.33;1.00;;;30.00;96.50;;;;;;5063932;28;20056;-50
2023/05/30 02:52:04;;;;;;;7.80;0.90;;;29.90;96.30;;;;;;5051509;28;20032;-46
2023/05/30 02:54:31;;;;;;;3.42;0.82;;;29.90;96.30;;;;;;5044486;28;20033;-47
2023/05/30 02:56:58;;;;;;;3.53;0.93;;;29.90;96.20;;;;;;5043861;28;20033;-47
2023/05/30 02:59:24;;;;;;;4.35;1.10;;;29.80;96.10;;;;;;5046341;28;20021;-52
2023/05/30 03:01:51;;;;;;;3.80;1.08;;;29.90;96.10;;;;;;5054866;28;20028;-52
2023/05/30 03:04:17;;;;;;;4.72;1.40;;;29.90;96.10;;;;;;5063878;28;20039;-46
2023/05/30 03:06:44;;;;;;;4.85;1.70;;;29.80;96.00;;;;;;5063615;28;20036;-46
2023/05/30 03:09:11;;;;;;;7.75;1.17;;;29.80;95.90;;;;;;5063738;28;20093;-46
2023/05/30 03:11:37;;;;;;;3.53;1.13;;;29.80;95.90;;;;;;5063499;28;20057;-47
2023/05/30 03:14:04;;;;;;;4.80;1.00;;;29.90;95.90;;;;;;5063236;28;20266;-50
2023/05/30 03:16:30;;;;;;;5.05;1.02;;;29.80;95.80;;;;;;5060403;28;20025;-52
2023/05/30 03:18:57;;;;;;;5.95;1.23;;;29.90;95.80;;;;;;5052491;28;20035;-45
2023/05/30 03:21:23;;;;;;;5.63;0.70;;;29.80;95.70;;;;;;5063609;28;20083;-52
2023/05/30 03:23:51;;;;;;;3.75;0.85;;;29.90;95.70;;;;;;5056798;28;20025;-48
2023/05/30 03:26:17;;;;;;;6.63;1.00;;;29.80;95.70;;;;;;5048609;28;20034;-46
2023/05/30 03:28:44;;;;;;;7.53;0.65;;;29.70;95.50;;;;;;5043253;28;20033;-45
2023/05/30 03:31:12;;;;;;;2.03;0.60;;;29.80;95.60;;;;;;5047800;28;20049;-54
2023/05/30 03:33:39;;;;;;;5.13;0.63;;;29.70;95.50;;;;;;5048063;28;20038;-47
2023/05/30 03:36:06;;;;;;;4.43;0.77;;;29.70;95.40;;;;;;5048001;28;20029;-45
2023/05/30 03:38:34;;;;;;;1.67;0.60;;;29.80;95.50;;;;;;5047587;28;20306;-50
2023/05/30 03:41:02;;;;;;;3.33;0.60;;;29.70;95.40;;;;;;5065485;28;20056;-48
2023/05/30 03:43:29;;;;;;;3.53;0.70;;;29.70;95.40;;;;;;5063757;28;20321;-48
2023/05/30 03:45:56;;;;;;;4.25;0.60;;;29.70;95.40;;;;;;5067703;28;20070;-47
2023/05/30 03:48:23;;;;;;;5.13;0.50;;;29.70;95.40;;;;;;5067285;28;20252;-47
2023/05/30 03:50:49;;;;;;;3.95;0.73;;;29.70;95.40;;;;;;5067089;28;20029;-48
2023/05/30 03:53:16;;;;;;;4.28;0.65;;;29.70;95.40;;;;;;5067085;28;20020;-46
2023/05/30 03:55:42;;;;;;;2.45;0.60;;;29.70;95.50;;;;;;5057002;28;20055;-47
2023/05/30 03:58:08;;;;;;;3.65;0.50;;;29.70;95.50;;;;;;5047131;28;20037;-48
2023/05/30 04:00:35;;;;;;;4.03;0.60;;;29.70;95.70;;;;;;5047000;28;20041;-46
2023/05/30 04:03:03;;;;;;;4.38;0.80;;;29.60;95.80;;;;;;5047597;28;20033;-52
2023/05/30 04:05:29;;;;;;;4.18;0.77;;;29.70;96.00;;;;;;5053102;28;20105;-46
2023/05/30 04:07:56;;;;;;;3.53;0.95;;;29.70;96.10;;;;;;5057130;28;20028;-46
2023/05/30 04:10:23;;;;;;;7.78;1.00;;;29.70;96.10;;;;;;5059234;28;20037;-46
2023/05/30 04:12:49;;;;;;;4.47;0.90;;;29.80;96.30;;;;;;5056364;28;20041;-44
2023/05/30 04:15:16;;;;;;;3.70;1.40;;;29.70;96.40;;;;;;5054117;28;20278;-48
2023/05/30 04:17:42;;;;;;;5.15;1.30;;;29.80;96.60;;;;;;5046828;28;20060;-49
2023/05/30 04:20:09;;;;;;;6.95;1.77;;;29.90;96.70;;;;;;5046967;28;20260;-46
2023/05/30 04:22:39;;;;;;;4.05;1.63;;;29.90;97.00;;;;;;5046502;28;20056;-44
2023/05/30 04:25:06;;;;;;;4.75;1.70;;;30.10;97.30;;;;;;5046992;28;20070;-48
2023/05/30 04:27:34;;;;;;;5.43;1.73;;;30.00;97.40;;;;;;5045503;28;20048;-44
2023/05/30 04:30:03;;;;;;;7.35;1.90;;;30.00;97.60;;;;;;5046561;28;20028;-43
2023/05/30 04:32:33;;;;;;;6.60;2.10;;;30.10;97.80;;;;;;5046515;28;20029;-46
2023/05/30 04:35:04;;;;;;;7.38;2.17;;;30.10;98.00;;;;;;5046770;28;20036;-50
2023/05/30 04:37:30;;;;;;;5.20;2.45;;;30.20;98.20;;;;;;5046387;28;20037;-50
2023/05/30 04:39:57;;;;;;;5.57;1.90;;;30.10;98.30;;;;;;5046275;28;20336;-54
2023/05/30 04:42:27;;;;;;;4.60;1.67;;;30.30;98.50;;;;;;5056290;28;20037;-49
2023/05/30 04:44:54;;;;;;;5.75;1.80;;;30.20;98.70;;;;;;5057713;28;20209;-46
2023/05/30 04:47:24;;;;;;;7.13;2.13;;;30.40;98.90;;;;;;5046223;28;20225;-46
2023/05/30 04:49:53;;;;;;;6.30;1.85;;;30.40;99.00;;;;;;5046147;28;20201;-51
2023/05/30 04:52:20;;;;;;;6.43;1.73;;;30.40;99.20;;;;;;5046157;28;20056;-50
2023/05/30 04:54:47;;;;;;;4.82;1.73;;;30.50;99.30;;;;;;5046262;28;20029;-49
2023/05/30 04:57:13;;;;;;;6.85;1.90;;;30.50;99.30;;;;;;5045879;28;20024;-45
2023/05/30 04:59:40;;;;;;;6.65;1.95;;;30.40;99.30;;;;;;5046165;28;20033;-48
2023/05/30 05:02:13;;;;;;;7.32;1.88;;;30.60;99.30;;;;;;5045951;28;20383;-46
2023/05/30 05:04:40;;;;;;;5.82;1.95;;;30.40;99.10;;;;;;5045936;28;20036;-45
2023/05/30 05:07:07;;;;;;;6.28;1.98;;;30.30;99.10;;;;;;5045993;28;20030;-47
2023/05/30 05:09:33;;;;;;;7.30;2.05;;;30.60;99.20;;;;;;5045863;28;20190;-50
2023/05/30 05:12:01;;;;;;;5.00;1.67;;;30.40;99.10;;;;;;5045500;28;20049;-50
2023/05/30 05:14:27;;;;;;;7.25;2.20;;;30.30;99.10;;;;;;5045814;28;20028;-54
2023/05/30 05:16:54;;;;;;;5.22;1.63;;;30.20;99.00;;;;;;5045683;28;20021;-49
2023/05/30 05:19:20;;;;;;;6.88;1.90;;;30.20;99.10;;;;;;5045563;28;20072;-46
2023/05/30 05:21:47;;;;;;;6.75;2.10;;;30.20;99.10;;;;;;5045904;28;20321;-52
2023/05/30 05:24:13;;;;;;;5.35;1.98;;;30.30;99.10;;;;;;5056132;28;20086;-47
2023/05/30 05:26:39;;;;;;;4.72;1.88;;;30.20;99.00;;;;;;5045438;28;20041;-48
2023/05/30 05:29:06;;;;;;;6.82;1.98;;;30.40;99.00;;;;;;5045406;28;20238;-46
2023/05/30 05:31:33;;;;;;;7.07;1.50;;;30.20;98.90;;;;;;5045465;28;20040;-45
2023/05/30 05:33:59;;;;;;;4.18;1.92;;;30.10;99.00;;;;;;5045374;28;20237;-48
2023/05/30 05:36:26;;;;;;;3.53;1.65;;;30.30;99.00;;;;;;5045128;28;20070;-49
2023/05/30 05:38:52;;;;;;;6.57;2.03;;;30.30;99.00;;;;;;5045594;28;20059;-48
2023/05/30 05:41:19;;;;;;;6.35;1.75;;;30.20;99.00;;;;;;5045242;28;20044;-46
2023/05/30 05:43:45;;;;;;;4.25;1.90;;;30.40;99.10;;;;;;5045038;28;20033;-47
2023/05/30 05:46:12;;;;;;;5.20;1.80;;;30.10;99.00;;;;;;5045548;28;20241;-50
2023/05/30 05:48:39;;;;;;;6.15;1.55;;;30.10;99.10;;;;;;5045120;28;20057;-50
2023/05/30 05:51:05;;;;;;;4.30;1.63;;;30.30;99.20;;;;;;5045314;28;20033;-47
2023/05/30 05:53:32;;;;;;;7.22;1.50;;;30.10;99.30;;;;;;5044074;28;20021;-48
2023/05/30 05:56:00;;;;;;;6.18;1.45;;;30.20;99.30;;;;;;5045464;28;20052;-47
2023/05/30 05:58:26;;;;;;;5.22;1.30;;;30.40;99.40;;;;;;5044744;28;20314;-47
2023/05/30 06:00:53;;;;;;;7.75;1.33;;;30.10;99.30;;;;;;5045226;28;20071;-45
2023/05/30 06:03:20;;;;;;;5.70;1.42;;;30.20;99.40;;;;;;5044941;28;20307;-46
2023/05/30 06:05:46;;;;;;;3.50;1.25;;;30.10;99.40;;;;;;5045010;28;20025;-47
2023/05/30 06:08:13;;;;;;;2.85;1.17;;;30.20;99.40;;;;;;5044897;28;20101;-46
2023/05/30 06:10:39;;;;;;;4.93;1.30;;;30.20;99.40;;;;;;5043374;28;20210;-48
2023/05/30 06:13:06;;;;;;;3.85;1.15;;;30.40;99.50;;;;;;5044499;28;20022;-47
2023/05/30 06:15:32;;;;;;;3.17;1.40;;;30.20;99.40;;;;;;5045041;28;20022;-45
2023/05/30 06:17:59;;;;;;;3.60;1.15;;;30.30;99.40;;;;;;5044687;28;20033;-47
2023/05/30 06:20:25;;;;;;;2.90;1.08;;;30.20;99.40;;;;;;5044746;28;20029;-47
2023/05/30 06:22:52;;;;;;;2.85;1.33;;;30.30;99.40;;;;;;5044452;28;20044;-45
2023/05/30 06:25:19;;;;;;;4.03;1.20;;;30.30;99.30;;;;;;5044718;28;20092;-47
2023/05/30 06:27:45;;;;;;;2.85;0.98;;;30.10;99.30;;;;;;5044240;28;20025;-45
2023/05/30 06:30:12;;;;;;;3.75;1.15;;;30.20;99.30;;;;;;5044539;28;20025;-47
2023/05/30 06:32:38;;;;;;;3.85;0.93;;;30.10;99.20;;;;;;5044294;28;20079;-46
2023/05/30 06:35:05;;;;;;;4.20;1.20;;;30.10;99.20;;;;;;5044399;28;20025;-48
2023/05/30 06:37:33;;;;;;;5.47;1.00;;;30.00;99.20;;;;;;5044197;28;20091;-45
2023/05/30 06:39:59;;;;;;;2.92;0.82;;;30.10;99.20;;;;;;5044380;28;20025;-44
2023/05/30 06:42:26;;;;;;;7.07;0.98;;;30.00;99.20;;;;;;5044187;28;20033;-51
2023/05/30 06:44:52;;;;;;;4.45;1.10;;;30.10;99.30;;;;;;5044287;28;20067;-46
2023/05/30 06:47:19;;;;;;;4.22;1.10;;;30.00;99.20;;;;;;5044073;28;20033;-47
2023/05/30 06:49:45;;;;;;;3.05;1.00;;;29.90;99.10;;;;;;5044144;28;20097;-47
2023/05/30 06:52:12;;;;;;;5.20;1.15;;;30.10;99.10;;;;;;5043883;28;20025;-47
2023/05/30 06:54:38;;;;;;;5.82;1.23;;;30.10;99.00;;;;;;5044099;28;20340;-46
2023/05/30 06:57:05;;;;;;;3.60;1.00;;;29.90;98.90;;;;;;5044095;28;20041;-47
2023/05/30 06:59:33;;;;;;;4.82;1.23;;;30.00;98.90;;;;;;5043892;28;20017;-48
2023/05/30 07:02:00;;;;;;;6.75;1.00;;;29.80;98.80;;;;;;5043918;28;20033;-45
2023/05/30 07:04:27;;;;;;;6.53;0.93;;;29.70;98.60;;;;;;5043675;28;20033;-48
2023/05/30 07:06:54;;;;;;;3.85;0.80;;;29.90;98.70;;;;;;5043682;28;20136;-44
2023/05/30 07:09:20;;;;;;;8.25;1.20;;;29.90;98.60;;;;;;5043844;28;20209;-50
2023/05/30 07:11:47;;;;;;;4.25;0.90;;;29.70;98.50;;;;;;5043628;28;20043;-46
2023/05/30 07:14:13;;;;;;;6.70;0.90;;;29.80;98.60;;;;;;5043582;28;20025;-49
2023/05/30 07:16:40;;;;;;;5.85;1.10;;;29.80;98.60;;;;;;5043738;28;20322;-46
2023/05/30 07:19:07;;;;;;;5.53;0.98;;;29.70;98.50;;;;;;5043762;28;20022;-47
2023/05/30 07:21:36;;;;;;;4.60;1.20;;;29.60;98.60;;;;;;5043546;28;20381;-46
2023/05/30 07:24:03;;;;;;;7.50;1.10;;;29.60;98.60;;;;;;5043627;28;20305;-48
2023/05/30 07:26:29;;;;;;;7.63;1.10;;;29.80;98.70;;;;;;5043661;28;20033;-45
2023/05/30 07:28:57;;;;;;;3.50;1.40;;;29.70;98.70;;;;;;5047846;28;20017;-46
2023/05/30 07:31:24;;;;;;;6.22;1.10;;;29.70;98.80;;;;;;5058980;28;20100;-47
2023/05/30 07:33:50;;;;;;;6.47;1.08;;;29.60;98.70;;;;;;5063479;28;20024;-45
2023/05/30 07:36:17;;;;;;;5.90;1.00;;;29.90;98.90;;;;;;5063346;28;20096;-46
2023/05/30 07:38:43;;;;;;;6.15;1.20;;;29.80;98.80;;;;;;5063673;28;20033;-44
2023/05/30 07:41:10;;;;;;;6.93;1.00;;;29.60;98.70;;;;;;5064166;28;20078;-46
2023/05/30 07:43:36;;;;;;;4.85;0.88;;;29.70;98.70;;;;;;5063289;28;20031;-44
2023/05/30 07:46:03;;;;;;;4.25;1.08;;;29.70;98.80;;;;;;5064018;28;20044;-44
2023/05/30 07:48:29;;;;;;;3.08;0.70;;;29.60;98.80;;;;;;5063445;28;20075;-49
2023/05/30 07:50:56;;;;;;;3.42;0.85;;;29.70;98.90;;;;;;5063595;28;20021;-46
2023/05/30 07:53:22;;;;;;;2.65;0.80;;;29.60;98.80;;;;;;5063562;28;20037;-48
2023/05/30 07:55:49;;;;;;;2.90;0.90;;;29.70;98.90;;;;;;5063730;28;20025;-48
2023/05/30 07:58:15;;;;;;;3.67;0.90;;;29.70;98.80;;;;;;5063172;28;20074;-48
2023/05/30 08:00:43;;;;;;;3.22;0.70;;;29.70;98.80;;;;;;5063771;28;20055;-51
2023/05/30 08:03:10;;;;;;;2.67;0.70;;;29.80;98.80;;;;;;5063313;28;20037;-47
2023/05/30 08:05:36;;;;;;;6.03;0.88;;;29.70;98.80;;;;;;5063472;28;20096;-50
2023/05/30 08:08:06;;;;;;;2.72;0.60;;;29.60;98.80;;;;;;5063466;28;20071;-46
2023/05/30 08:10:33;;;;;;;5.93;0.95;;;29.60;98.80;;;;;;5063310;28;20033;-48
2023/05/30 08:13:00;;;;;;;3.00;0.90;;;29.80;98.90;;;;;;5063062;28;20313;-54
2023/05/30 08:15:27;;;;;;;7.30;1.30;;;29.60;98.80;;;;;;5063527;28;20033;-46
2023/05/30 08:17:56;;;;;;;5.68;0.80;;;29.80;98.90;;;;;;5066302;28;20021;-47
2023/05/30 08:20:24;;;;;;;2.78;0.60;;;29.80;98.80;;;;;;5067143;28;20029;-45
2023/05/30 08:22:50;;;;;;;6.68;0.90;;;29.60;98.80;;;;;;5066657;28;20036;-45
2023/05/30 08:25:17;;;;;;;7.05;0.82;;;29.50;98.70;;;;;;5066917;28;20301;-49
2023/05/30 08:27:43;;;;;;;1.25;0.50;;;29.70;98.80;;;;;;5066462;28;20325;-48
2023/05/30 08:30:11;;;;;;;7.90;0.70;;;29.60;98.80;;;;;;5066737;28;20075;-45
2023/05/30 08:32:38;;;;;;;5.90;0.85;;;29.60;98.70;;;;;;5066758;28;20020;-48
2023/05/30 08:35:05;;;;;;;3.88;0.90;;;29.60;98.70;;;;;;5066668;28;20301;-48
2023/05/30 08:37:32;;;;;;;6.25;1.15;;;29.60;98.70;;;;;;5066358;28;20272;-47
2023/05/30 08:39:58;;;;;;;6.35;1.00;;;29.60;98.70;;;;;;5066701;28;20265;-46
2023/05/30 08:42:25;;;;;;;3.03;0.90;;;29.40;98.60;;;;;;5066325;28;20264;-50
2023/05/30 08:44:52;;;;;;;4.20;0.93;;;29.60;98.80;;;;;;5066407;28;20036;-48
2023/05/30 08:47:20;;;;;;;4.28;0.85;;;29.60;98.80;;;;;;5066269;28;20084;-47
2023/05/30 08:49:51;;;;;;;4.40;0.85;;;29.40;98.70;;;;;;5066585;28;20027;-47
2023/05/30 08:52:21;;;;;;;5.53;0.90;;;29.50;98.70;;;;;;5066279;28;20078;-46
2023/05/30 08:55:07;;;;;;;6.22;0.80;;;29.40;98.80;;;;;;5066322;28;20295;-47
2023/05/30 08:57:44;;;;;;;4.95;1.20;;;29.40;98.80;;;;;;5065647;28;20041;-45
2023/05/30 09:00:15;;;;;;;4.88;0.90;;;29.50;98.90;;;;;;5066187;28;20029;-46
2023/05/30 09:02:43;;;;;;;3.85;0.82;;;29.30;98.90;;;;;;5065801;28;20037;-46
2023/05/30 09:05:15;;;;;;;4.45;0.98;;;29.50;98.90;;;;;;5066315;28;20025;-46
2023/05/30 09:07:45;;;;;;;3.72;0.60;;;29.40;99.00;;;;;;5065784;28;20037;-49
2023/05/30 09:10:12;;;;;;;2.80;0.70;;;29.50;99.10;;;;;;5065736;28;20052;-47
2023/05/30 09:12:41;;;;;;;5.68;0.98;;;29.20;99.20;;;;;;5065726;28;20029;-48
2023/05/30 09:15:08;;;;;;;2.05;0.70;;;29.40;99.30;;;;;;5065823;28;20025;-45
2023/05/30 09:17:34;;;;;;;4.78;0.90;;;29.30;99.30;;;;;;5065641;28;20021;-47
2023/05/30 09:20:01;;;;;;;4.75;1.00;;;29.40;99.30;;;;;;5065831;28;20029;-47
2023/05/30 09:22:28;;;;;;;5.75;1.00;;;29.40;99.30;;;;;;5065493;28;20031;-50
2023/05/30 09:25:03;;;;;;;5.13;1.10;;;29.40;99.20;;;;;;5065826;28;20032;-51
2023/05/30 09:27:35;;;;;;;2.45;0.90;;;29.30;99.20;;;;;;5065198;28;20198;-45
2023/05/30 09:30:10;;;;;;;3.43;1.00;;;29.30;99.40;;;;;;5065432;28;20205;-45
2023/05/30 09:32:38;;;;;;;4.65;0.90;;;29.30;99.30;;;;;;5065239;28;20553;-45
2023/05/30 09:35:09;;;;;;;4.57;0.90;;;29.30;99.30;;;;;;5065367;28;20051;-53
2023/05/30 09:37:41;;;;;;;4.00;1.05;;;29.50;99.30;;;;;;5065180;28;20100;-46
2023/05/30 09:40:10;;;;;;;3.45;0.60;;;29.50;99.30;;;;;;5065408;28;20092;-46
2023/05/30 09:42:41;;;;;;;3.25;1.05;;;29.50;99.20;;;;;;5065063;28;20033;-47
2023/05/30 09:45:10;;;;;;;3.25;1.00;;;29.50;99.20;;;;;;5065350;28;20056;-48
2023/05/30 09:47:47;;;;;;;5.25;0.70;;;29.50;99.30;;;;;;5065338;28;20252;-45
2023/05/30 09:50:18;;;;;;;5.85;0.95;;;29.40;99.20;;;;;;5065197;28;20310;-45
2023/05/30 09:52:51;;;;;;;2.90;0.70;;;29.50;99.20;;;;;;5065049;28;20226;-47
2023/05/30 09:55:18;;;;;;;2.47;0.68;;;29.30;99.10;;;;;;5065050;28;20056;-46
2023/05/30 09:57:51;;;;;;;2.90;0.52;;;29.50;99.20;;;;;;5064867;28;20344;-45
2023/05/30 10:00:26;;;;;;;5.93;0.85;;;29.30;99.10;;;;;;5065119;28;20039;-47
2023/05/30 10:02:54;;;;;;;1.63;0.70;;;29.40;99.20;;;;;;5064833;28;20041;-48
2023/05/30 10:05:22;;;;;;;3.47;0.73;;;29.40;99.10;;;;;;5065043;28;20309;-48
2023/05/30 10:07:51;;;;;;;3.78;0.98;;;29.40;99.10;;;;;;5064598;28;20059;-45
2023/05/30 10:10:18;;;;;;;5.30;1.27;;;29.30;99.20;;;;;;5064642;28;20069;-46
2023/05/30 10:12:52;;;;;;;5.18;1.42;;;29.30;99.20;;;;;;5064670;28;20202;-51
2023/05/30 10:15:21;;;;;;;7.60;2.30;;;29.50;99.30;;;;;;5064683;28;20301;-44
2023/05/30 10:17:54;;;;;;;11.32;2.40;;;29.30;99.30;;;;;;5064526;28;20032;-46
2023/05/30 10:20:24;;;;;;;6.00;1.73;;;29.50;99.40;;;;;;5064803;28;20033;-46
2023/05/30 10:22:54;;;;;;;7.88;2.28;;;29.30;99.30;;;;;;5064624;28;20029;-45
2023/05/30 10:25:28;;;;;;;6.68;2.08;;;29.40;99.50;;;;;;5064710;28;20023;-46
2023/05/30 10:27:57;;;;;;;7.68;2.63;;;29.50;99.50;;;;;;5064230;28;20053;-46
2023/05/30 10:30:31;;;;;;;8.93;2.47;;;29.50;99.50;;;;;;5064622;28;20094;-49
2023/05/30 10:33:07;;;;;;;8.63;2.78;;;29.40;99.40;;;;;;5064051;28;20325;-47
2023/05/30 10:35:34;;;;;;;8.05;2.67;;;29.30;99.40;;;;;;5064560;28;20071;-46
2023/05/30 10:38:04;;;;;;;9.80;2.33;;;29.40;99.40;;;;;;5064163;28;20321;-51
2023/05/30 10:40:52;;;;;;;10.80;2.05;;;29.40;99.40;;;;;;5063733;28;20247;-48
2023/05/30 10:43:46;;;;;;;5.43;1.85;;;29.40;99.30;;;;;;5064382;28;20217;-51
2023/05/30 10:46:21;;;;;;;5.63;1.63;;;29.40;99.40;;;;;;5064013;28;20032;-46
2023/05/30 10:48:54;;;;;;;6.53;1.23;;;29.30;99.30;;;;;;5063794;28;20044;-45
2023/05/30 10:51:21;;;;;;;8.07;1.00;;;29.30;99.30;;;;;;5063911;28;20028;-46
2023/05/30 10:53:48;;;;;;;2.47;1.00;;;29.40;99.30;;;;;;5063914;28;20041;-46
2023/05/30 10:56:36;;;;;;;3.42;0.80;;;29.20;99.30;;;;;;5063657;28;20024;-52
2023/05/30 10:59:10;;;;;;;4.45;1.30;;;29.30;99.40;;;;;;5063757;28;20032;-44
2023/05/30 11:01:39;;;;;;;3.78;1.17;;;29.30;99.40;;;;;;5063738;28;20260;-47
2023/05/30 11:04:06;;;;;;;3.28;1.00;;;29.40;99.50;;;;;;5063882;28;20039;-45
2023/05/30 11:06:44;;;;;;;7.63;1.40;;;29.40;99.50;;;;;;5056848;28;20249;-49
2023/05/30 11:09:16;;;;;;;8.35;1.40;;;29.40;99.40;;;;;;5045493;28;20306;-45
2023/05/30 11:11:44;;;;;;;4.40;1.00;;;29.20;99.40;;;;;;5043677;28;20060;-47
2023/05/30 11:14:13;;;;;;;3.88;1.27;;;29.30;99.60;;;;;;5043907;28;20029;-45
2023/05/30 11:17:06;;;;;;;5.30;1.00;;;29.40;99.60;;;;;;5043763;28;20060;-40
2023/05/30 11:19:48;;;;;;;2.97;1.15;;;29.10;99.40;;;;;;5043428;28;20028;-42
2023/05/30 11:22:17;;;;;;;4.17;1.23;;;29.00;99.90;;;;;;5043871;28;20105;-42
2023/05/30 11:24:45;;;;;;;4.95;0.80;;;29.20;99.90;;;;;;5043659;28;20252;-42
2023/05/30 11:27:16;;;;;;;5.25;1.50;;;29.30;99.90;;;;;;5043638;28;20032;-42
2023/05/30 11:29:57;;;;;;;7.43;1.30;;;29.50;99.90;;;;;;5043763;28;20025;-41
2023/05/30 11:32:28;;;;;;;10.63;1.50;;;29.50;99.90;;;;;;5042910;28;20039;-45
2023/05/30 11:35:06;;;;;;;4.78;1.25;;;29.50;99.90;;;;;;5043785;28;20036;-42
2023/05/30 11:37:35;;;;;;;5.43;1.27;;;29.60;99.90;;;;;;5043459;28;20258;-48
2023/05/30 11:40:12;;;;;;;7.05;1.33;;;29.70;99.90;;;;;;5049658;28;20262;-42
2023/05/30 11:42:41;;;;;;;7.22;1.42;;;29.60;99.90;;;;;;5063277;28;20025;-43
2023/05/30 11:45:09;;;;;;;3.15;1.15;;;29.80;99.90;;;;;;5063184;28;20025;-42
2023/05/30 11:47:35;;;;;;;3.40;1.10;;;29.80;99.90;;;;;;5063379;28;20336;-42
2023/05/30 11:50:03;;;;;;;2.05;0.95;;;29.70;99.90;;;;;;5063804;28;20032;-41
2023/05/30 11:52:36;;;;;;;3.05;1.00;;;29.70;99.90;;;;;;5067341;28;20056;-45
2023/05/30 11:55:03;;;;;;;2.70;0.80;;;29.90;99.90;;;;;;5067327;28;20017;-48
2023/05/30 11:57:30;;;;;;;2.35;0.80;;;29.90;99.90;;;;;;5067202;28;20041;-47
2023/05/30 11:59:56;;;;;;;3.42;0.80;;;29.80;99.90;;;;;;5067330;28;20197;-44
2023/05/30 12:02:30;;;;;;;2.22;0.80;;;29.80;99.90;;;;;;5067034;28;20082;-48
2023/05/30 12:05:03;;;;;;;2.00;0.60;;;29.90;99.90;;;;;;5067203;28;20094;-43
2023/05/30 12:07:32;;;;;;;1.48;0.57;;;29.90;99.90;;;;;;5066981;28;20055;-45
2023/05/30 12:09:58;;;;;;;2.00;0.80;;;29.90;99.90;;;;;;5065328;28;20029;-46
2023/05/30 12:12:26;;;;;;;4.25;0.73;;;30.10;99.90;;;;;;5055107;28;20100;-41
2023/05/30 12:14:53;;;;;;;3.25;0.88;;;30.10;99.90;;;;;;5067074;28;20028;-41
2023/05/30 12:17:21;;;;;;;1.42;0.60;;;30.00;99.90;;;;;;5066679;28;20406;-45
2023/05/30 12:20:10;;;;;;;3.00;0.70;;;30.10;99.90;;;;;;5066881;28;20091;-41
2023/05/30 12:22:44;;;;;;;2.72;0.80;;;30.20;99.90;;;;;;5066417;28;20048;-41
2023/05/30 12:25:12;;;;;;;2.55;0.70;;;30.20;99.90;;;;;;5066939;28;20033;-42
2023/05/30 12:27:47;;;;;;;2.13;0.50;;;30.20;99.90;;;;;;5066501;28;20031;-45
2023/05/30 12:30:15;;;;;;;3.75;0.50;;;30.10;99.90;;;;;;5066708;28;20105;-42
2023/05/30 12:32:42;;;;;;;1.27;0.50;;;30.10;99.90;;;;;;5066390;28;20025;-45
2023/05/30 12:35:10;;;;;;;1.88;0.50;;;30.20;99.90;;;;;;5066566;28;20090;-52
2023/05/30 12:37:37;;;;;;;3.50;1.27;;;30.30;99.90;;;;;;5066420;28;20025;-41
2023/05/30 12:40:05;;;;;;;2.60;0.90;;;30.30;99.90;;;;;;5066677;28;20025;-43
2023/05/30 12:42:33;;;;;;;1.80;1.00;;;30.30;99.90;;;;;;5066176;28;20036;-44
2023/05/30 12:45:09;;;;;;;1.98;0.85;;;30.30;99.90;;;;;;5066619;28;20012;-45
2023/05/30 12:47:35;;;;;;;2.42;1.10;;;30.30;99.90;;;;;;5066247;28;20313;-43
2023/05/30 12:50:03;;;;;;;3.55;1.08;;;30.40;99.90;;;;;;5066169;28;20047;-40
2023/05/30 12:52:30;;;;;;;2.55;0.90;;;30.40;99.90;;;;;;5066223;28;20343;-41